createdAt,value
2022-09-28T00:02:01.933Z,8.56
2022-09-28T00:04:50.082Z,8.69
2022-09-28T00:07:37.977Z,8.63
2022-09-28T00:10:25.838Z,8.67
2022-09-28T00:13:15.043Z,8.69
2022-09-28T00:16:04.871Z,8.69
2022-09-28T00:18:53.226Z,8.67
2022-09-28T00:21:42.638Z,8.40
2022-09-28T00:24:30.530Z,8.68
2022-09-28T00:27:18.377Z,8.68
2022-09-28T00:30:09.600Z,8.77
2022-09-28T00:32:57.559Z,8.71
2022-09-28T00:35:45.443Z,8.69
2022-09-28T00:38:33.353Z,8.67
2022-09-28T00:41:21.234Z,8.70
2022-09-28T00:44:36.065Z,8.71
2022-09-28T00:47:41.586Z,8.75
2022-09-28T00:50:32.876Z,8.73
2022-09-28T00:53:24.788Z,8.77
2022-09-28T00:56:17.373Z,8.75
2022-09-28T00:59:05.836Z,8.82
2022-09-28T01:01:53.926Z,8.80
2022-09-28T01:04:43.322Z,8.82
2022-09-28T01:07:32.926Z,8.82
2022-09-28T01:10:20.975Z,8.77
2022-09-28T01:13:08.960Z,8.83
2022-09-28T01:16:04.453Z,8.80
2022-09-28T01:19:08.090Z,8.78
2022-09-28T01:22:10.128Z,8.87
2022-09-28T01:25:05.878Z,8.86
2022-09-28T01:27:58.647Z,8.85
2022-09-28T01:30:54.853Z,8.87
2022-09-28T01:33:46.832Z,8.98
2022-09-28T01:36:43.588Z,8.96
2022-09-28T01:39:35.925Z,8.99
2022-09-28T01:42:28.541Z,9.03
2022-09-28T01:45:22.886Z,9.05
2022-09-28T01:48:18.489Z,9.03
2022-09-28T01:51:10.789Z,9.01
2022-09-28T01:54:06.671Z,9.04
2022-09-28T01:56:58.735Z,8.96
2022-09-28T01:59:53.237Z,9.04
2022-09-28T02:02:48.434Z,9.07
2022-09-28T02:05:42.009Z,9.08
2022-09-28T02:08:35.990Z,9.01
2022-09-28T02:11:24.414Z,9.16
2022-09-28T02:14:16.941Z,9.16
2022-09-28T02:17:07.148Z,9.11
2022-09-28T02:19:56.504Z,9.17
2022-09-28T02:22:48.855Z,9.14
2022-09-28T02:25:41.313Z,9.18
2022-09-28T02:28:31.309Z,9.26
2022-09-28T02:31:19.692Z,9.23
2022-09-28T02:34:07.801Z,9.25
2022-09-28T02:36:57.227Z,9.16
2022-09-28T02:39:45.140Z,9.23
2022-09-28T02:42:43.613Z,9.20
2022-09-28T02:45:41.306Z,9.14
2022-09-28T02:49:04.910Z,9.13
2022-09-28T02:52:25.845Z,9.08
2022-09-28T02:55:22.501Z,9.16
2022-09-28T02:58:28.751Z,9.16
2022-09-28T03:01:27.293Z,9.23
2022-09-28T03:04:27.709Z,9.18
2022-09-28T03:07:23.091Z,9.21
2022-09-28T03:10:20.436Z,9.23
2022-09-28T03:13:09.568Z,9.21
2022-09-28T03:16:09.355Z,9.18
2022-09-28T03:18:57.429Z,9.16
2022-09-28T03:21:45.332Z,9.23
2022-09-28T03:24:33.297Z,9.23
2022-09-28T03:27:22.763Z,9.20
2022-09-28T03:30:12.472Z,9.24
2022-09-28T03:33:03.433Z,9.30
2022-09-28T03:35:53.976Z,9.24
2022-09-28T03:38:41.943Z,9.30
2022-09-28T03:41:29.884Z,9.26
2022-09-28T03:44:19.100Z,9.23
2022-09-28T03:47:08.994Z,9.23
2022-09-28T03:49:57.773Z,9.24
2022-09-28T03:52:45.646Z,9.26
2022-09-28T03:55:33.531Z,9.25
2022-09-28T03:58:21.805Z,9.31
2022-09-28T04:01:16.939Z,9.29
2022-09-28T04:04:06.963Z,9.33
2022-09-28T04:06:55.957Z,9.36
2022-09-28T04:09:43.884Z,9.40
2022-09-28T04:12:31.816Z,9.41
2022-09-28T04:15:19.676Z,9.39
2022-09-28T04:18:12.108Z,9.37
2022-09-28T04:21:24.202Z,9.28
2022-09-28T04:24:18.781Z,9.20
2022-09-28T04:27:24.347Z,9.15
2022-09-28T04:30:12.828Z,9.05
2022-09-28T04:33:02.915Z,8.98
2022-09-28T04:35:53.122Z,8.93
2022-09-28T04:38:52.687Z,9.01
2022-09-28T04:41:42.090Z,8.94
2022-09-28T04:44:30.291Z,8.98
2022-09-28T04:47:22.677Z,9.03
2022-09-28T04:50:36.859Z,8.99
2022-09-28T04:53:34.008Z,9.00
2022-09-28T04:56:22.044Z,8.93
2022-09-28T04:59:11.589Z,8.95
2022-09-28T05:02:00.374Z,8.99
2022-09-28T05:05:07.641Z,8.97
2022-09-28T05:08:16.209Z,8.86
2022-09-28T05:11:07.330Z,8.98
2022-09-28T05:13:55.257Z,8.94
2022-09-28T05:16:43.217Z,8.90
2022-09-28T05:19:57.229Z,8.90
2022-09-28T05:22:45.189Z,8.90
2022-09-28T05:25:34.830Z,8.95
2022-09-28T05:28:33.670Z,8.96
2022-09-28T05:31:56.971Z,8.99
2022-09-28T05:34:56.620Z,8.98
2022-09-28T05:37:49.421Z,9.04
2022-09-28T05:40:37.495Z,9.05
2022-09-28T05:43:25.841Z,9.06
2022-09-28T05:46:15.587Z,8.98
2022-09-28T05:49:04.228Z,9.00
2022-09-28T05:51:52.325Z,9.01
2022-09-28T05:54:40.329Z,9.08
2022-09-28T05:57:28.376Z,9.11
2022-09-28T06:00:16.569Z,9.11
2022-09-28T06:03:15.204Z,9.15
2022-09-28T06:06:03.335Z,9.20
2022-09-28T06:08:52.498Z,9.25
2022-09-28T06:11:59.277Z,9.30
2022-09-28T06:15:00.725Z,9.34
2022-09-28T06:17:49.634Z,9.32
2022-09-28T06:21:14.868Z,9.32
2022-09-28T06:24:06.330Z,9.31
2022-09-28T06:26:54.372Z,9.39
2022-09-28T06:29:43.175Z,9.52
2022-09-28T06:32:31.203Z,9.66
2022-09-28T06:35:19.251Z,9.71
2022-09-28T06:38:09.145Z,9.94
2022-09-28T06:40:58.822Z,9.91
2022-09-28T06:43:48.566Z,9.81
2022-09-28T06:46:55.846Z,9.78
2022-09-28T06:49:43.868Z,9.75
2022-09-28T06:52:52.673Z,9.72
2022-09-28T06:56:12.214Z,9.67
2022-09-28T06:59:00.186Z,9.69
2022-09-28T07:01:49.875Z,9.71
2022-09-28T07:04:42.380Z,9.80
2022-09-28T07:07:57.456Z,9.57
2022-09-28T07:11:07.097Z,9.83
2022-09-28T07:14:43.353Z,9.81
2022-09-28T07:17:39.806Z,9.85
2022-09-28T07:20:47.604Z,9.92
2022-09-28T07:23:51.329Z,9.86
2022-09-28T07:26:45.379Z,9.86
2022-09-28T07:29:53.942Z,9.95
2022-09-28T07:32:46.632Z,10.03
2022-09-28T07:35:54.290Z,10.15
2022-09-28T07:38:45.121Z,10.28
2022-09-28T07:41:32.592Z,10.52
2022-09-28T07:44:23.206Z,10.75
2022-09-28T07:47:16.458Z,10.56
2022-09-28T07:50:25.241Z,10.36
2022-09-28T07:53:22.846Z,10.07
2022-09-28T07:56:28.596Z,10.02
2022-09-28T07:59:45.714Z,10.27
2022-09-28T08:03:04.185Z,10.10
2022-09-28T08:05:59.100Z,10.22
2022-09-28T08:08:47.163Z,10.17
2022-09-28T08:11:38.627Z,10.69
2022-09-28T08:14:47.195Z,11.22
2022-09-28T08:17:51.014Z,10.95
2022-09-28T08:21:00.420Z,11.60
2022-09-28T08:23:48.928Z,11.57
2022-09-28T08:26:37.000Z,11.51
2022-09-28T08:29:25.187Z,11.28
2022-09-28T08:32:19.532Z,11.10
2022-09-28T08:35:27.870Z,10.98
2022-09-28T08:38:39.385Z,11.21
2022-09-28T08:42:06.492Z,11.17
2022-09-28T08:45:15.192Z,11.12
2022-09-28T08:48:38.291Z,11.12
2022-09-28T08:51:43.278Z,11.26
2022-09-28T08:54:48.925Z,11.62
2022-09-28T08:57:52.066Z,11.84
2022-09-28T09:00:46.941Z,11.93
2022-09-28T09:03:39.378Z,12.02
2022-09-28T09:07:23.441Z,12.06
2022-09-28T09:10:44.575Z,12.14
2022-09-28T09:14:01.743Z,12.10
2022-09-28T09:17:00.636Z,12.04
2022-09-28T09:20:20.057Z,11.75
2022-09-28T09:23:20.303Z,11.55
2022-09-28T09:26:22.848Z,11.46
2022-09-28T09:29:28.086Z,11.68
2022-09-28T09:32:42.812Z,11.93
2022-09-28T09:36:09.843Z,12.30
2022-09-28T09:39:36.147Z,12.46
2022-09-28T09:42:55.206Z,12.87
2022-09-28T09:46:14.509Z,12.89
2022-09-28T09:49:29.318Z,12.36
2022-09-28T09:52:24.978Z,12.23
2022-09-28T09:55:21.154Z,12.08
2022-09-28T09:58:19.523Z,11.85
2022-09-28T10:01:15.423Z,11.67
2022-09-28T10:04:38.680Z,11.57
2022-09-28T10:07:43.471Z,12.06
2022-09-28T10:10:35.581Z,13.04
2022-09-28T10:13:32.873Z,13.22
2022-09-28T10:16:25.225Z,13.29
2022-09-28T10:19:20.875Z,13.06
2022-09-28T10:22:28.419Z,12.93
2022-09-28T10:25:20.271Z,12.73
2022-09-28T10:28:13.129Z,12.70
2022-09-28T10:31:35.267Z,13.03
2022-09-28T10:34:27.598Z,13.39
2022-09-28T10:37:17.927Z,13.22
2022-09-28T10:40:38.888Z,13.42
2022-09-28T10:43:30.263Z,13.78
2022-09-28T10:46:24.109Z,14.01
2022-09-28T10:49:18.168Z,14.43
2022-09-28T10:52:32.848Z,14.50
2022-09-28T10:55:32.581Z,14.68
2022-09-28T10:58:27.520Z,15.17
2022-09-28T11:01:19.445Z,14.90
2022-09-28T11:04:20.879Z,14.91
2022-09-28T11:07:18.764Z,15.24
2022-09-28T11:10:07.795Z,15.41
2022-09-28T11:12:56.694Z,15.69
2022-09-28T11:15:46.948Z,15.38
2022-09-28T11:18:43.870Z,14.59
2022-09-28T11:21:43.089Z,14.81
2022-09-28T11:24:32.344Z,14.83
2022-09-28T11:27:25.496Z,14.20
2022-09-28T11:30:24.513Z,13.78
2022-09-28T11:33:33.475Z,13.41
2022-09-28T11:37:03.245Z,13.30
2022-09-28T11:40:04.678Z,13.36
2022-09-28T11:46:00.999Z,15.00
2022-09-28T11:48:54.023Z,15.24
2022-09-28T11:51:44.728Z,15.03
2022-09-28T11:54:41.578Z,14.51
2022-09-28T11:57:36.088Z,14.01
2022-09-28T12:00:24.604Z,13.69
2022-09-28T12:03:23.611Z,13.39
2022-09-28T12:06:17.202Z,13.10
2022-09-28T12:09:09.992Z,13.01
2022-09-28T12:12:26.564Z,12.85
2022-09-28T12:15:22.177Z,12.78
2022-09-28T12:18:18.815Z,12.85
2022-09-28T12:21:29.075Z,12.89
2022-09-28T12:24:21.244Z,13.12
2022-09-28T12:27:18.518Z,13.34
2022-09-28T12:30:15.062Z,13.42
2022-09-28T12:33:06.120Z,13.51
2022-09-28T12:36:13.831Z,13.79
2022-09-28T12:39:30.827Z,14.15
2022-09-28T12:42:39.163Z,14.11
2022-09-28T12:46:09.951Z,14.29
2022-09-28T12:50:20.009Z,14.23
2022-09-28T12:52:34.261Z,14.29
2022-09-28T12:55:33.919Z,14.10
2022-09-28T12:58:36.514Z,13.95
2022-09-28T13:01:44.250Z,14.20
2022-09-28T13:04:48.248Z,14.27
2022-09-28T13:07:44.467Z,14.39
2022-09-28T13:10:39.471Z,14.64
2022-09-28T13:13:41.154Z,15.02
2022-09-28T13:16:37.663Z,15.67
2022-09-28T13:19:36.141Z,15.87
2022-09-28T13:22:33.841Z,15.62
2022-09-28T13:25:26.266Z,15.28
2022-09-28T13:28:16.950Z,14.99
2022-09-28T13:31:05.958Z,14.81
2022-09-28T13:33:57.186Z,14.70
2022-09-28T13:36:48.142Z,14.79
2022-09-28T13:39:51.937Z,14.71
2022-09-28T13:43:26.217Z,14.59
2022-09-28T13:46:24.901Z,14.50
2022-09-28T13:49:20.043Z,14.29
2022-09-28T13:52:13.928Z,14.47
2022-09-28T13:55:27.256Z,14.52
2022-09-28T13:58:22.615Z,14.93
2022-09-28T14:01:14.003Z,15.53
2022-09-28T14:04:18.402Z,15.65
2022-09-28T14:07:16.422Z,15.31
2022-09-28T14:10:24.552Z,15.04
2022-09-28T14:13:13.175Z,14.77
2022-09-28T14:16:21.124Z,14.47
2022-09-28T14:19:12.896Z,14.43
2022-09-28T14:22:22.384Z,14.22
2022-09-28T14:25:18.460Z,14.07
2022-09-28T14:28:26.076Z,13.98
2022-09-28T14:31:18.259Z,13.86
2022-09-28T14:34:08.035Z,13.85
2022-09-28T14:37:13.864Z,13.80
2022-09-28T14:40:27.971Z,13.81
2022-09-28T14:43:36.123Z,13.75
2022-09-28T14:46:33.071Z,13.77
2022-09-28T14:49:50.411Z,13.73
2022-09-28T14:52:41.663Z,13.74
2022-09-28T14:55:35.350Z,13.84
2022-09-28T14:58:26.625Z,13.78
2022-09-28T15:01:20.155Z,13.86
2022-09-28T15:04:13.767Z,13.90
2022-09-28T15:07:01.964Z,14.02
2022-09-28T15:09:51.508Z,13.90
2022-09-28T15:12:44.692Z,13.92
2022-09-28T15:15:35.993Z,13.85
2022-09-28T15:19:13.330Z,13.83
2022-09-28T15:22:01.432Z,13.95
2022-09-28T15:25:01.425Z,14.00
2022-09-28T15:27:55.032Z,13.91
2022-09-28T15:30:43.412Z,14.02
2022-09-28T15:33:51.125Z,13.98
2022-09-28T15:36:41.054Z,13.79
2022-09-28T15:39:34.038Z,13.55
2022-09-28T15:42:22.801Z,13.51
2022-09-28T15:45:30.645Z,13.38
2022-09-28T15:48:21.423Z,13.37
2022-09-28T15:51:11.919Z,13.21
2022-09-28T15:54:04.223Z,13.08
2022-09-28T15:56:54.862Z,12.96
2022-09-28T15:59:44.395Z,12.90
2022-09-28T16:02:33.817Z,12.87
2022-09-28T16:05:35.589Z,12.81
2022-09-28T16:08:37.695Z,12.84
2022-09-28T16:11:27.895Z,12.73
2022-09-28T16:14:20.361Z,12.65
2022-09-28T16:17:17.603Z,12.58
2022-09-28T16:20:22.529Z,12.29
2022-09-28T16:23:21.000Z,12.28
2022-09-28T16:26:16.695Z,12.16
2022-09-28T16:29:09.327Z,11.88
2022-09-28T16:31:57.277Z,11.66
2022-09-28T16:34:45.194Z,11.53
2022-09-28T16:37:34.844Z,11.41
2022-09-28T16:40:22.846Z,11.25
2022-09-28T16:43:20.088Z,10.56
2022-09-28T16:46:11.969Z,10.99
2022-09-28T16:49:02.938Z,10.57
2022-09-28T16:51:50.984Z,10.77
2022-09-28T16:54:58.065Z,10.71
2022-09-28T16:57:49.853Z,10.52
2022-09-28T17:00:37.775Z,10.37
2022-09-28T17:03:25.922Z,10.21
2022-09-28T17:06:15.300Z,10.02
2022-09-28T17:09:06.784Z,9.88
2022-09-28T17:11:56.926Z,9.62
2022-09-28T17:14:45.615Z,9.32
2022-09-28T17:17:33.609Z,9.30
2022-09-28T17:20:24.959Z,9.09
2022-09-28T17:23:13.001Z,8.97
2022-09-28T17:26:03.132Z,8.78
2022-09-28T17:28:53.006Z,8.62
2022-09-28T17:31:41.363Z,8.52
2022-09-28T17:34:29.359Z,8.38
2022-09-28T17:37:17.454Z,8.25
2022-09-28T17:40:16.186Z,8.15
2022-09-28T17:43:05.676Z,8.04
2022-09-28T17:45:55.180Z,7.97
2022-09-28T17:48:45.995Z,7.86
2022-09-28T17:51:37.463Z,7.74
2022-09-28T17:54:26.020Z,7.80
2022-09-28T17:57:14.244Z,7.67
2022-09-28T18:00:02.841Z,7.80
2022-09-28T18:02:54.328Z,7.78
2022-09-28T18:05:43.344Z,7.72
2022-09-28T18:08:32.101Z,7.81
2022-09-28T18:11:20.040Z,7.93
2022-09-28T18:14:11.217Z,7.77
2022-09-28T18:16:59.575Z,8.18
2022-09-28T18:19:48.900Z,8.33
2022-09-28T18:22:37.163Z,8.42
2022-09-28T18:25:25.140Z,8.44
2022-09-28T18:28:14.042Z,8.52
2022-09-28T18:31:08.652Z,8.47
2022-09-28T18:34:00.314Z,8.43
2022-09-28T18:36:49.639Z,8.35
2022-09-28T18:39:39.105Z,8.29
2022-09-28T18:42:27.049Z,8.29
2022-09-28T18:45:17.189Z,8.11
2022-09-28T18:48:05.136Z,8.29
2022-09-28T18:50:52.987Z,8.13
2022-09-28T18:53:42.309Z,8.38
2022-09-28T18:56:30.325Z,8.45
2022-09-28T18:59:18.432Z,8.55
2022-09-28T19:02:06.563Z,8.57
2022-09-28T19:04:54.747Z,8.53
2022-09-28T19:07:42.720Z,8.58
2022-09-28T19:10:32.073Z,8.57
2022-09-28T19:13:20.069Z,8.63
2022-09-28T19:16:09.558Z,8.66
2022-09-28T19:18:58.647Z,8.76
2022-09-28T19:21:47.258Z,8.84
2022-09-28T19:24:35.754Z,8.81
2022-09-28T19:27:25.078Z,8.78
2022-09-28T19:30:14.015Z,8.88
2022-09-28T19:33:01.976Z,8.82
2022-09-28T19:35:56.762Z,8.69
2022-09-28T19:38:44.890Z,8.62
2022-09-28T19:41:45.664Z,8.63
2022-09-28T19:44:35.778Z,8.47
2022-09-28T19:47:23.806Z,8.39
2022-09-28T19:50:11.843Z,8.44
2022-09-28T19:53:01.674Z,8.32
2022-09-28T19:55:52.727Z,8.39
2022-09-28T19:58:40.712Z,8.37
2022-09-28T20:01:31.310Z,8.29
2022-09-28T20:04:20.960Z,8.24
2022-09-28T20:07:08.989Z,8.24
2022-09-28T20:09:56.825Z,8.21
2022-09-28T20:12:45.034Z,8.15
2022-09-28T20:15:36.212Z,8.18
2022-09-28T20:18:27.412Z,8.14
2022-09-28T20:21:18.140Z,8.21
2022-09-28T20:24:06.617Z,8.28
2022-09-28T20:26:54.576Z,8.36
2022-09-28T20:29:43.005Z,8.29
2022-09-28T20:32:32.143Z,8.11
2022-09-28T20:35:32.130Z,8.38
2022-09-28T20:38:20.928Z,8.46
2022-09-28T20:41:10.597Z,8.42
2022-09-28T20:44:04.145Z,8.42
2022-09-28T20:46:53.322Z,8.51
2022-09-28T20:49:41.441Z,8.64
2022-09-28T20:52:30.689Z,8.91
2022-09-28T20:55:18.612Z,9.22
2022-09-28T20:58:06.488Z,9.39
2022-09-28T21:01:02.337Z,9.43
2022-09-28T21:03:52.007Z,9.63
2022-09-28T21:06:41.858Z,9.62
2022-09-28T21:09:32.057Z,9.95
2022-09-28T21:12:20.093Z,10.12
2022-09-28T21:15:08.585Z,10.06
2022-09-28T21:17:56.508Z,10.11
2022-09-28T21:20:48.029Z,10.23
2022-09-28T21:23:36.806Z,10.35
2022-09-28T21:26:28.073Z,10.36
2022-09-28T21:29:16.580Z,10.28
2022-09-28T21:32:04.451Z,10.29
2022-09-28T21:34:52.507Z,10.27
2022-09-28T21:37:40.518Z,10.17
2022-09-28T21:40:28.612Z,10.14
2022-09-28T21:43:17.859Z,10.11
2022-09-28T21:46:06.117Z,10.14
2022-09-28T21:48:54.497Z,10.12
2022-09-28T21:51:42.419Z,10.25
2022-09-28T21:54:30.349Z,10.20
2022-09-28T21:57:18.832Z,10.15
2022-09-28T22:00:09.910Z,10.25
2022-09-28T22:02:57.795Z,10.07
2022-09-28T22:05:45.802Z,10.02
2022-09-28T22:08:34.127Z,10.07
2022-09-28T22:11:23.700Z,9.91
2022-09-28T22:14:12.083Z,9.84
2022-09-28T22:17:01.374Z,9.50
2022-09-28T22:19:49.250Z,9.83
2022-09-28T22:22:37.103Z,9.92
2022-09-28T22:25:24.980Z,9.62
2022-09-28T22:28:12.883Z,9.85
2022-09-28T22:31:00.973Z,9.75
2022-09-28T22:33:50.684Z,9.71
2022-09-28T22:36:38.670Z,9.88
2022-09-28T22:39:26.886Z,10.01
2022-09-28T22:42:16.264Z,9.99
2022-09-28T22:45:04.505Z,9.87
2022-09-28T22:47:52.412Z,9.72
2022-09-28T22:50:49.197Z,9.67
2022-09-28T22:53:37.061Z,9.27
2022-09-28T22:56:25.557Z,9.28
2022-09-28T22:59:13.430Z,9.41
2022-09-28T23:02:02.014Z,9.28
2022-09-28T23:04:49.974Z,9.20
2022-09-28T23:07:39.390Z,9.07
2022-09-28T23:10:27.375Z,9.12
2022-09-28T23:13:15.590Z,8.66
2022-09-28T23:16:06.390Z,8.86
2022-09-28T23:18:56.054Z,8.86
2022-09-28T23:21:43.911Z,8.74
2022-09-28T23:24:33.087Z,8.62
2022-09-28T23:27:21.000Z,8.44
2022-09-28T23:30:10.280Z,8.42
2022-09-28T23:32:58.143Z,8.25
2022-09-28T23:35:46.032Z,8.13
2022-09-28T23:38:34.028Z,8.27
2022-09-28T23:41:23.228Z,8.34
2022-09-28T23:44:11.205Z,8.19
2022-09-28T23:46:59.142Z,8.17
2022-09-28T23:49:47.019Z,8.09
2022-09-28T23:52:35.300Z,7.77
2022-09-28T23:55:23.227Z,7.92
2022-09-28T23:58:12.817Z,7.84
